Time;durP1;ratioP1;P1;durP2;ratioP2;P2;SDS_P1;SDS_P2;PMS_P1;PMS_P2;Temp;Humidity;BMP_temperature;BMP_pressure;BME280_temperature;BME280_humidity;BME280_pressure;Samples;Min_cycle;Max_cycle;Signal;HPM_P1;HPM_P2
2021/01/25 00:01:25;;;;;;;;;;;;;;;0.09;100.00;99180.78;5112449;28;19930;-75
2021/01/25 00:03:52;;;;;;;;;;;;;;;0.06;100.00;99183.66;5112433;28;19931;-75
2021/01/25 00:06:17;;;;;;;;;;;;;;;-0.01;100.00;99183.16;5112053;28;19924;-75
2021/01/25 00:08:43;;;;;;;;;;;;;;;0.04;100.00;99187.34;5110964;28;20466;-69
2021/01/25 00:11:09;;;;;;;;;;;;;;;0.04;100.00;99180.22;5111709;28;19935;-69
2021/01/25 00:13:35;;;;;;;;;;;;;;;0.03;100.00;99181.19;5112118;28;20733;-68
2021/01/25 00:16:00;;;;;;;;;;;;;;;0.01;100.00;99185.72;5111996;28;19931;-69
2021/01/25 00:18:26;;;;;;;;;;;;;;;0.01;100.00;99180.41;5112114;28;20569;-68
2021/01/25 00:20:53;;;;;;;;;;;;;;;0.02;100.00;99179.44;5112131;28;19923;-69
2021/01/25 00:23:19;;;;;;;;;;;;;;;-0.01;100.00;99187.66;5112179;28;19928;-68
2021/01/25 00:25:44;;;;;;;;;;;;;;;0.00;100.00;99181.38;5111805;28;19931;-69
2021/01/25 00:28:10;;;;;;;;;;;;;;;0.02;100.00;99192.78;5112105;28;20005;-68
2021/01/25 00:30:36;;;;;;;;;;;;;;;0.07;100.00;99185.38;5110698;28;20307;-69
2021/01/25 00:33:02;;;;;;;;;;;;;;;0.08;100.00;99183.53;5103692;28;19969;-68
2021/01/25 00:35:27;;;;;;;;;;;;;;;0.10;100.00;99190.50;5111690;28;19923;-69
2021/01/25 00:37:54;;;;;;;;;;;;;;;0.09;100.00;99187.94;5111709;28;19931;-68
2021/01/25 00:40:20;;;;;;;;;;;;;;;0.09;100.00;99183.44;5111851;28;20023;-69
2021/01/25 00:42:46;;;;;;;;;;;;;;;0.04;100.00;99176.69;5111929;28;20401;-69
2021/01/25 00:45:12;;;;;;;;;;;;;;;0.07;100.00;99185.38;5111641;28;19931;-68
2021/01/25 00:47:38;;;;;;;;;;;;;;;0.07;100.00;99179.19;5111266;28;20022;-69
2021/01/25 00:50:04;;;;;;;;;;;;;;;0.09;100.00;99179.94;5111846;28;19924;-68
2021/01/25 00:52:30;;;;;;;;;;;;;;;0.11;100.00;99181.56;5111859;28;19923;-68
2021/01/25 00:54:57;;;;;;;;;;;;;;;0.14;100.00;99185.84;5111820;28;19927;-68
2021/01/25 00:57:23;;;;;;;;;;;;;;;0.16;100.00;99195.47;5111572;28;20404;-68
2021/01/25 00:59:48;;;;;;;;;;;;;;;0.16;100.00;99190.13;5111787;28;19928;-68
2021/01/25 01:02:14;;;;;;;;;;;;;;;0.13;100.00;99187.66;5111816;28;19930;-68
2021/01/25 01:04:40;;;;;;;;;;;;;;;0.08;100.00;99183.53;5111609;28;19928;-68
2021/01/25 01:07:06;;;;;;;;;;;;;;;0.07;100.00;99189.84;5111554;28;19931;-68
2021/01/25 01:09:32;;;;;;;;;;;;;;;0.06;100.00;99193.47;5111664;28;19928;-69
2021/01/25 01:11:58;;;;;;;;;;;;;;;-0.04;100.00;99193.16;5111670;28;19989;-68
2021/01/25 01:14:24;;;;;;;;;;;;;;;-0.10;100.00;99196.22;5111724;28;19924;-68
2021/01/25 01:16:50;;;;;;;;;;;;;;;-0.12;100.00;99200.78;5111282;28;19955;-68
2021/01/25 01:19:16;;;;;;;;;;;;;;;-0.19;100.00;99193.19;5112081;28;19970;-68
2021/01/25 01:21:42;;;;;;;;;;;;;;;-0.20;100.00;99194.13;5115357;28;19928;-69
2021/01/25 01:24:08;;;;;;;;;;;;;;;-0.20;100.00;99199.47;5115435;28;19973;-68
2021/01/25 01:26:34;;;;;;;;;;;;;;;-0.21;100.00;99203.06;5114948;28;19924;-68
2021/01/25 01:29:00;;;;;;;;;;;;;;;-0.20;100.00;99204.78;5114034;28;19967;-69
2021/01/25 01:31:26;;;;;;;;;;;;;;;-0.21;100.00;99211.06;5113877;28;20358;-69
2021/01/25 01:33:52;;;;;;;;;;;;;;;-0.20;100.00;99209.25;5115193;28;19923;-69
2021/01/25 01:36:18;;;;;;;;;;;;;;;-0.21;100.00;99208.41;5114924;28;19924;-68
2021/01/25 01:38:43;;;;;;;;;;;;;;;-0.20;100.00;99210.13;5113847;28;19930;-69
2021/01/25 01:41:09;;;;;;;;;;;;;;;-0.21;100.00;99210.22;5113757;28;19935;-68
2021/01/25 01:43:35;;;;;;;;;;;;;;;-0.22;100.00;99204.00;5113771;28;19927;-68
2021/01/25 01:46:02;;;;;;;;;;;;;;;-0.22;100.00;99204.00;5114620;28;20034;-69
2021/01/25 01:48:28;;;;;;;;;;;;;;;-0.23;100.00;99207.66;5114878;28;20018;-68
2021/01/25 01:50:55;;;;;;;;;;;;;;;-0.26;100.00;99207.81;5114784;28;20266;-68
2021/01/25 01:53:21;;;;;;;;;;;;;;;-0.25;100.00;99214.03;5114847;28;19958;-68
2021/01/25 01:55:47;;;;;;;;;;;;;;;-0.26;100.00;99221.16;5114192;28;19924;-69
2021/01/25 01:58:14;;;;;;;;;;;;;;;-0.27;100.00;99218.59;5114700;28;19930;-68
2021/01/25 02:00:40;;;;;;;;;;;;;;;-0.26;100.00;99220.31;5114595;28;20371;-68
2021/01/25 02:03:06;;;;;;;;;;;;;;;-0.24;100.00;99216.59;5114621;28;19931;-68
2021/01/25 02:05:32;;;;;;;;;;;;;;;-0.22;100.00;99206.69;5114406;28;20010;-68
2021/01/25 02:08:00;;;;;;;;;;;;;;;-0.21;100.00;99215.56;5113341;28;19951;-68
2021/01/25 02:10:27;;;;;;;;;;;;;;;-0.22;100.00;99212.00;5114337;28;19970;-68
2021/01/25 02:12:55;;;;;;;;;;;;;;;-0.22;100.00;99216.50;5114533;28;20018;-69
2021/01/25 02:15:22;;;;;;;;;;;;;;;-0.22;100.00;99214.69;5114290;28;20018;-68
2021/01/25 02:17:48;;;;;;;;;;;;;;;-0.22;100.00;99217.34;5114069;28;20029;-69
2021/01/25 02:20:23;;;;;;;;;;;;;;;-0.24;100.00;99219.25;5114471;28;20270;-69
2021/01/25 02:22:57;;;;;;;;;;;;;;;-0.29;100.00;99217.84;5114472;28;20018;-69
2021/01/25 02:25:29;;;;;;;;;;;;;;;-0.32;100.00;99223.34;5114161;28;20019;-68
2021/01/25 02:27:56;;;;;;;;;;;;;;;-0.42;100.00;99215.88;5113494;28;20019;-69
2021/01/25 02:30:22;;;;;;;;;;;;;;;-0.49;100.00;99217.22;5112765;28;20026;-68
2021/01/25 02:32:51;;;;;;;;;;;;;;;-0.58;100.00;99221.28;5114017;28;20018;-67
2021/01/25 02:35:18;;;;;;;;;;;;;;;-0.62;100.00;99221.56;5114015;28;19962;-67
2021/01/25 02:37:44;;;;;;;;;;;;;;;-0.66;100.00;99220.88;5113847;28;20006;-68
2021/01/25 02:40:12;;;;;;;;;;;;;;;-0.68;100.00;99220.13;5113892;28;20360;-67
2021/01/25 02:42:38;;;;;;;;;;;;;;;-0.69;100.00;99231.72;5113882;28;19977;-67
2021/01/25 02:45:06;;;;;;;;;;;;;;;-0.68;100.00;99231.63;5113657;28;20014;-67
2021/01/25 02:47:32;;;;;;;;;;;;;;;-0.66;100.00;99233.34;5113510;28;19931;-67
2021/01/25 02:49:58;;;;;;;;;;;;;;;-0.70;100.00;99236.16;5113586;28;19924;-67
2021/01/25 02:52:24;;;;;;;;;;;;;;;-0.69;100.00;99237.06;5113646;28;19985;-67
2021/01/25 02:54:50;;;;;;;;;;;;;;;-0.66;100.00;99244.84;5113224;28;20007;-67
2021/01/25 02:57:16;;;;;;;;;;;;;;;-0.62;100.00;99243.72;5113408;28;19966;-67
2021/01/25 02:59:42;;;;;;;;;;;;;;;-0.59;100.00;99243.56;5113398;28;20011;-67
2021/01/25 03:02:09;;;;;;;;;;;;;;;-0.56;100.00;99238.03;5113451;28;20015;-67
2021/01/25 03:04:36;;;;;;;;;;;;;;;-0.53;100.00;99239.69;5113527;28;20409;-67
2021/01/25 03:07:02;;;;;;;;;;;;;;;-0.51;100.00;99237.75;5113144;28;19979;-67
2021/01/25 03:09:28;;;;;;;;;;;;;;;-0.48;100.00;99242.06;5113286;28;20025;-67
2021/01/25 03:11:55;;;;;;;;;;;;;;;-0.48;100.00;99242.94;5113304;28;20101;-67
2021/01/25 03:14:21;;;;;;;;;;;;;;;-0.49;100.00;99249.22;5113108;28;20014;-68
2021/01/25 03:16:47;;;;;;;;;;;;;;;-0.49;100.00;99243.88;5112935;28;19977;-67
2021/01/25 03:19:13;;;;;;;;;;;;;;;-0.49;100.00;99248.31;5113238;28;20238;-67
2021/01/25 03:21:45;;;;;;;;;;;;;;;-0.46;100.00;99250.84;5112997;28;20452;-67
2021/01/25 03:24:10;;;;;;;;;;;;;;;-0.45;100.00;99253.41;5113077;28;19931;-68
2021/01/25 03:26:36;;;;;;;;;;;;;;;-0.42;100.00;99258.53;5111352;28;19928;-67
2021/01/25 03:29:02;;;;;;;;;;;;;;;-0.41;100.00;99262.94;5112911;28;20421;-67
2021/01/25 03:31:28;;;;;;;;;;;;;;;-0.40;100.00;99267.31;5112672;28;19924;-68
2021/01/25 03:33:54;;;;;;;;;;;;;;;-0.42;100.00;99263.88;5112716;28;19946;-67
2021/01/25 03:36:20;;;;;;;;;;;;;;;-0.39;100.00;99258.38;5111201;28;19927;-67
2021/01/25 03:38:46;;;;;;;;;;;;;;;-0.38;100.00;99267.22;5112349;28;20022;-68
2021/01/25 03:41:12;;;;;;;;;;;;;;;-0.38;100.00;99262.75;5112356;28;19981;-67
2021/01/25 03:43:38;;;;;;;;;;;;;;;-0.39;100.00;99269.06;5112372;28;19950;-68
2021/01/25 03:46:04;;;;;;;;;;;;;;;-0.42;100.00;99263.88;5110521;28;19930;-67
2021/01/25 03:48:29;;;;;;;;;;;;;;;-0.39;100.00;99273.50;5112597;28;19972;-67
2021/01/25 03:50:55;;;;;;;;;;;;;;;-0.41;100.00;99276.28;5112414;28;20000;-67
2021/01/25 03:53:22;;;;;;;;;;;;;;;-0.43;100.00;99274.63;5112317;28;19930;-67
2021/01/25 03:55:48;;;;;;;;;;;;;;;-0.40;100.00;99278.00;5112019;28;20026;-67
2021/01/25 03:58:14;;;;;;;;;;;;;;;-0.37;100.00;99280.47;5112302;28;19928;-67
2021/01/25 04:00:39;;;;;;;;;;;;;;;-0.34;100.00;99282.09;5112287;28;19927;-67
2021/01/25 04:03:05;;;;;;;;;;;;;;;-0.34;100.00;99282.94;5112453;28;19931;-68
2021/01/25 04:05:31;;;;;;;;;;;;;;;-0.35;100.00;99277.72;5112012;28;19924;-68
2021/01/25 04:07:57;;;;;;;;;;;;;;;-0.39;100.00;99278.84;5112005;28;19969;-67
2021/01/25 04:10:23;;;;;;;;;;;;;;;-0.41;100.00;99284.28;5112090;28;19924;-67
2021/01/25 04:12:49;;;;;;;;;;;;;;;-0.40;100.00;99282.44;5112060;28;19967;-67
2021/01/25 04:15:15;;;;;;;;;;;;;;;-0.39;100.00;99284.19;5111701;28;20305;-67
2021/01/25 04:17:41;;;;;;;;;;;;;;;-0.44;100.00;99286.25;5111548;28;20008;-67
2021/01/25 04:20:07;;;;;;;;;;;;;;;-0.46;100.00;99288.16;5112002;28;20484;-67
2021/01/25 04:22:33;;;;;;;;;;;;;;;-0.51;100.00;99285.75;5111986;28;19966;-67
2021/01/25 04:24:59;;;;;;;;;;;;;;;-0.57;100.00;99284.31;5111901;28;19924;-67
2021/01/25 04:27:25;;;;;;;;;;;;;;;-0.59;100.00;99286.22;5111569;28;19924;-68
2021/01/25 04:29:51;;;;;;;;;;;;;;;-0.63;100.00;99284.66;5111885;28;19968;-67
2021/01/25 04:32:17;;;;;;;;;;;;;;;-0.66;100.00;99284.84;5111793;28;19931;-67
2021/01/25 04:34:43;;;;;;;;;;;;;;;-0.68;100.00;99287.59;5111775;28;19931;-68
2021/01/25 04:37:09;;;;;;;;;;;;;;;-0.67;100.00;99291.09;5110307;28;19927;-67
2021/01/25 04:39:36;;;;;;;;;;;;;;;-0.67;100.00;99291.09;5111381;28;20039;-67
2021/01/25 04:42:02;;;;;;;;;;;;;;;-0.67;100.00;99296.44;5111914;28;19959;-67
2021/01/25 04:44:29;;;;;;;;;;;;;;;-0.63;100.00;99299.78;5111867;28;19930;-68
2021/01/25 04:46:56;;;;;;;;;;;;;;;-0.62;100.00;99293.53;5111526;28;20365;-67
2021/01/25 04:49:22;;;;;;;;;;;;;;;-0.64;100.00;99298.06;5111782;28;19974;-68
2021/01/25 04:51:48;;;;;;;;;;;;;;;-0.60;100.00;99299.59;5111124;28;20026;-67
2021/01/25 04:54:14;;;;;;;;;;;;;;;-0.63;100.00;99307.78;5113336;28;20408;-67
2021/01/25 04:56:40;;;;;;;;;;;;;;;-0.63;100.00;99310.47;5115354;28;20365;-67
2021/01/25 04:59:06;;;;;;;;;;;;;;;-0.62;100.00;99302.38;5114519;28;19924;-67
2021/01/25 05:01:33;;;;;;;;;;;;;;;-0.62;100.00;99305.03;5115417;28;19930;-67
2021/01/25 05:03:59;;;;;;;;;;;;;;;-0.62;100.00;99299.69;5115528;28;19955;-67
2021/01/25 05:06:25;;;;;;;;;;;;;;;-0.64;100.00;99298.94;5115336;28;19924;-67
2021/01/25 05:08:50;;;;;;;;;;;;;;;-0.67;100.00;99291.09;5115452;28;19923;-67
2021/01/25 05:11:17;;;;;;;;;;;;;;;-0.74;100.00;99287.94;5115396;28;19931;-67
2021/01/25 05:13:43;;;;;;;;;;;;;;;-0.79;100.00;99286.50;5115580;28;19955;-67
2021/01/25 05:16:16;;;;;;;;;;;;;;;-0.87;100.00;99295.78;5114679;28;19955;-68
2021/01/25 05:18:43;;;;;;;;;;;;;;;-0.93;100.00;99301.47;5098726;28;19925;-67
2021/01/25 05:21:08;;;;;;;;;;;;;;;-0.93;100.00;99301.47;5108850;28;19924;-67
2021/01/25 05:23:37;;;;;;;;;;;;;;;-0.91;100.00;99309.34;5115231;28;20368;-67
2021/01/25 05:26:04;;;;;;;;;;;;;;;-0.88;100.00;99314.53;5102160;28;19981;-67
2021/01/25 05:28:30;;;;;;;;;;;;;;;-0.81;100.00;99315.06;5094842;28;19932;-67
2021/01/25 05:30:56;;;;;;;;;;;;;;;-0.77;100.00;99312.09;5104906;28;19924;-68
2021/01/25 05:33:25;;;;;;;;;;;;;;;-0.73;100.00;99308.31;5101497;28;19991;-67
2021/01/25 05:35:54;;;;;;;;;;;;;;;-0.69;100.00;99301.88;5114819;28;20077;-67
2021/01/25 05:38:21;;;;;;;;;;;;;;;-0.67;100.00;99309.75;5095469;28;20015;-67
2021/01/25 05:40:54;;;;;;;;;;;;;;;-0.68;100.00;99310.75;5102465;28;20031;-67
2021/01/25 05:43:20;;;;;;;;;;;;;;;-0.67;100.00;99301.78;5097951;27;19928;-67
2021/01/25 05:45:45;;;;;;;;;;;;;;;-0.65;100.00;99307.88;5094311;28;19925;-67
2021/01/25 05:48:12;;;;;;;;;;;;;;;-0.62;100.00;99310.38;5102311;28;19924;-66
2021/01/25 05:50:38;;;;;;;;;;;;;;;-0.60;100.00;99316.47;5114801;28;20158;-67
2021/01/25 05:53:06;;;;;;;;;;;;;;;-0.56;100.00;99310.03;5112275;28;20361;-67
2021/01/25 05:55:32;;;;;;;;;;;;;;;-0.53;100.00;99315.16;5097904;28;20014;-66
2021/01/25 05:57:58;;;;;;;;;;;;;;;-0.48;100.00;99316.72;5103658;28;19976;-66
2021/01/25 06:00:24;;;;;;;;;;;;;;;-0.51;100.00;99310.63;5094144;28;20046;-66
2021/01/25 06:02:51;;;;;;;;;;;;;;;-0.49;100.00;99309.66;5094120;28;20100;-66
2021/01/25 06:05:35;;;;;;;;;;;;;;;-0.49;100.00;99317.66;5093795;28;20426;-66
2021/01/25 06:08:03;;;;;;;;;;;;;;;-0.48;100.00;99312.25;5093916;28;20004;-67
2021/01/25 06:10:33;;;;;;;;;;;;;;;-0.49;100.00;99318.53;5093790;28;20466;-67
2021/01/25 06:13:03;;;;;;;;;;;;;;;-0.46;100.00;99320.16;5094060;28;19928;-67
2021/01/25 06:15:30;;;;;;;;;;;;;;;-0.47;100.00;99324.59;5097004;28;19924;-67
2021/01/25 06:17:56;;;;;;;;;;;;;;;-0.48;100.00;99314.91;5096282;28;20454;-67
2021/01/25 06:20:23;;;;;;;;;;;;;;;-0.46;100.00;99322.81;5095258;28;20041;-67
2021/01/25 06:22:49;;;;;;;;;;;;;;;-0.47;100.00;99319.28;5114117;28;20034;-67
2021/01/25 06:25:15;;;;;;;;;;;;;;;-0.52;100.00;99316.91;5096184;28;20014;-67
2021/01/25 06:27:42;;;;;;;;;;;;;;;-0.54;100.00;99321.44;5096663;28;20362;-67
2021/01/25 06:30:10;;;;;;;;;;;;;;;-0.56;100.00;99326.03;5113814;28;19963;-68
2021/01/25 06:32:38;;;;;;;;;;;;;;;-0.53;100.00;99330.31;5107309;28;20007;-67
2021/01/25 06:35:05;;;;;;;;;;;;;;;-0.54;100.00;99334.78;5107385;28;20030;-67
2021/01/25 06:37:34;;;;;;;;;;;;;;;-0.53;100.00;99335.66;5111036;28;20638;-68
2021/01/25 06:40:05;;;;;;;;;;;;;;;-0.48;100.00;99340.69;5112712;28;19928;-68
2021/01/25 06:42:32;;;;;;;;;;;;;;;-0.46;100.00;99339.66;5108443;28;19963;-68
2021/01/25 06:44:59;;;;;;;;;;;;;;;-0.45;100.00;99343.22;5106465;28;19935;-68
2021/01/25 06:47:25;;;;;;;;;;;;;;;-0.42;100.00;99337.69;5097635;28;19935;-68
2021/01/25 06:49:51;;;;;;;;;;;;;;;-0.39;100.00;99346.38;5093189;28;20019;-68
2021/01/25 06:52:18;;;;;;;;;;;;;;;-0.40;100.00;99339.31;5093006;28;19975;-68
2021/01/25 06:54:44;;;;;;;;;;;;;;;-0.40;100.00;99346.44;5100481;28;20002;-68
2021/01/25 06:57:10;;;;;;;;;;;;;;;-0.39;100.00;99346.38;5109151;28;20013;-69
2021/01/25 06:59:38;;;;;;;;;;;;;;;-0.39;100.00;99348.16;5109878;28;20000;-69
2021/01/25 07:02:08;;;;;;;;;;;;;;;-0.37;100.00;99347.13;5092851;28;19931;-66
2021/01/25 07:04:40;;;;;;;;;;;;;;;-0.38;100.00;99353.41;5103245;28;20330;-68
2021/01/25 07:07:06;;;;;;;;;;;;;;;-0.39;100.00;99358.84;5112939;28;20504;-68
2021/01/25 07:09:33;;;;;;;;;;;;;;;-0.40;100.00;99357.09;5111703;28;19931;-67
2021/01/25 07:11:59;;;;;;;;;;;;;;;-0.40;100.00;99362.44;5112915;28;19924;-67
2021/01/25 07:14:26;;;;;;;;;;;;;;;-0.37;100.00;99372.94;5111736;28;20031;-67
2021/01/25 07:16:52;;;;;;;;;;;;;;;-0.35;100.00;99371.91;5103998;28;20510;-67
2021/01/25 07:19:19;;;;;;;;;;;;;;;-0.34;100.00;99378.09;5092489;28;20019;-67
2021/01/25 07:21:46;;;;;;;;;;;;;;;-0.31;100.00;99374.41;5098736;28;19936;-67
2021/01/25 07:24:15;;;;;;;;;;;;;;;-0.31;100.00;99382.41;5094193;28;20389;-67
2021/01/25 07:26:42;;;;;;;;;;;;;;;-0.32;100.00;99378.00;5106824;28;19955;-67
2021/01/25 07:29:11;;;;;;;;;;;;;;;-0.25;100.00;99388.25;5112617;28;20018;-67
2021/01/25 07:31:37;;;;;;;;;;;;;;;-0.32;100.00;99386.88;5099474;28;20353;-67
2021/01/25 07:34:03;;;;;;;;;;;;;;;-0.31;100.00;99393.91;5100558;28;20010;-67
2021/01/25 07:36:31;;;;;;;;;;;;;;;-0.30;100.00;99397.47;5112452;28;19962;-67
2021/01/25 07:38:56;;;;;;;;;;;;;;;-0.32;100.00;99402.88;5105161;28;19931;-68
2021/01/25 07:41:22;;;;;;;;;;;;;;;-0.28;100.00;99409.75;5091453;28;19924;-67
2021/01/25 07:43:49;;;;;;;;;;;;;;;-0.35;100.00;99409.25;5099232;28;19965;-67
2021/01/25 07:46:15;;;;;;;;;;;;;;;-0.33;100.00;99411.84;5108825;28;20018;-67
2021/01/25 07:48:48;;;;;;;;;;;;;;;-0.27;100.00;99416.78;5110759;28;19950;-67
2021/01/25 07:51:18;;;;;;;;;;;;;;;-0.24;100.00;99413.09;5103757;28;19923;-68
2021/01/25 07:53:44;;;;;;;;;;;;;;;-0.20;100.00;99420.84;5109530;28;20351;-67
2021/01/25 07:56:13;;;;;;;;;;;;;;;-0.17;100.00;99418.00;5109985;28;20526;-67
2021/01/25 07:58:39;;;;;;;;;;;;;;;-0.19;100.00;99419.03;5109426;28;20014;-67
2021/01/25 08:01:08;;;;;;;;;;;;;;;-0.18;100.00;99415.41;5107097;28;19931;-67
2021/01/25 08:03:35;;;;;;;;;;;;;;;-0.14;100.00;99413.44;5091120;28;20340;-67
2021/01/25 08:06:04;;;;;;;;;;;;;;;-0.12;100.00;99406.19;5093491;28;19931;-67
2021/01/25 08:08:31;;;;;;;;;;;;;;;-0.10;100.00;99407.81;5111276;28;20049;-66
2021/01/25 08:10:58;;;;;;;;;;;;;;;-0.06;100.00;99408.50;5098355;28;20022;-67
2021/01/25 08:13:27;;;;;;;;;;;;;;;-0.04;100.00;99412.81;5089602;28;19924;-67
2021/01/25 08:16:02;;;;;;;;;;;;;;;-0.09;100.00;99414.88;5101746;28;19951;-68
2021/01/25 08:18:32;;;;;;;;;;;;;;;-0.08;100.00;99415.75;5111155;28;19923;-66
2021/01/25 08:21:00;;;;;;;;;;;;;;;-0.02;100.00;99426.06;5097960;28;19924;-67
2021/01/25 08:23:27;;;;;;;;;;;;;;;0.00;100.00;99429.50;5090661;28;19951;-66
2021/01/25 08:25:55;;;;;;;;;;;;;;;0.01;100.00;99425.88;5101439;28;20014;-66
2021/01/25 08:28:23;;;;;;;;;;;;;;;-0.03;100.00;99429.69;5109683;28;19928;-68
2021/01/25 08:30:51;;;;;;;;;;;;;;;-0.02;100.00;99431.41;5102252;28;20400;-67
2021/01/25 08:33:26;;;;;;;;;;;;;;;-0.03;100.00;99429.69;5106849;28;19931;-68
2021/01/25 08:35:53;;;;;;;;;;;;;;;-0.02;100.00;99442.91;5110762;28;20018;-68
2021/01/25 08:38:23;;;;;;;;;;;;;;;-0.03;100.00;99440.34;5105330;28;20527;-68
2021/01/25 08:40:50;;;;;;;;;;;;;;;-0.05;100.00;99452.94;5049284;28;1177430;-68
2021/01/25 08:43:24;;;;;;;;;;;;;;;-0.06;100.00;99448.53;5106020;28;20339;-69
2021/01/25 08:45:52;;;;;;;;;;;;;;;-0.11;100.00;99453.28;5111623;28;20011;-69
2021/01/25 08:48:24;;;;;;;;;;;;;;;-0.09;100.00;99456.72;5095801;28;19965;-68
2021/01/25 08:50:50;;;;;;;;;;;;;;;-0.06;100.00;99456.53;5091455;28;20451;-68
2021/01/25 08:53:27;;;;;;;;;;;;;;;-0.04;100.00;99451.97;5105974;28;20015;-68
2021/01/25 08:55:57;;;;;;;;;;;;;;;0.00;100.00;99458.88;5111786;28;20020;-67
2021/01/25 08:58:25;;;;;;;;;;;;;;;0.03;100.00;99461.34;5111345;28;19924;-67
2021/01/25 09:00:51;;;;;;;;;;;;;;;0.01;100.00;99460.56;5111423;28;20520;-66
2021/01/25 09:03:19;;;;;;;;;;;;;;;0.00;100.00;99461.53;5096158;28;20073;-67
2021/01/25 09:05:44;;;;;;;;;;;;;;;-0.05;100.00;99459.13;5090867;28;19935;-66
2021/01/25 09:08:10;;;;;;;;;;;;;;;-0.01;100.00;99465.16;5103304;28;19927;-66
2021/01/25 09:10:36;;;;;;;;;;;;;;;0.08;100.00;99469.94;5100997;28;19950;-68
2021/01/25 09:13:02;;;;;;;;;;;;;;;0.12;100.00;99471.50;5091140;28;19924;-67
2021/01/25 09:15:28;;;;;;;;;;;;;;;0.10;100.00;99478.72;5091185;28;19924;-67
2021/01/25 09:17:55;;;;;;;;;;;;;;;0.18;100.00;99480.94;5090827;28;19924;-67
2021/01/25 09:20:21;;;;;;;;;;;;;;;0.23;100.00;99481.53;5098845;28;20018;-66
2021/01/25 09:22:47;;;;;;;;;;;;;;;0.31;100.00;99486.44;5110175;28;20329;-68
2021/01/25 09:25:15;;;;;;;;;;;;;;;0.30;100.00;99485.56;5096167;28;20102;-67
2021/01/25 09:27:42;;;;;;;;;;;;;;;0.33;100.00;99490.75;5090674;28;19932;-66
2021/01/25 09:30:09;;;;;;;;;;;;;;;0.42;100.00;99493.81;5105268;28;20044;-67
2021/01/25 09:32:34;;;;;;;;;;;;;;;0.47;100.00;99495.25;5110054;28;19959;-67
2021/01/25 09:35:01;;;;;;;;;;;;;;;0.48;100.00;99496.09;5092788;28;20325;-66
2021/01/25 09:37:27;;;;;;;;;;;;;;;0.47;100.00;99497.09;5091851;28;19959;-67
2021/01/25 09:39:53;;;;;;;;;;;;;;;0.53;100.00;99501.19;5104937;28;19931;-67
2021/01/25 09:42:18;;;;;;;;;;;;;;;0.46;100.00;99495.34;5110664;28;20390;-68
2021/01/25 09:44:44;;;;;;;;;;;;;;;0.67;100.00;99503.91;5106982;28;19924;-68
2021/01/25 09:47:10;;;;;;;;;;;;;;;0.72;100.00;99506.28;5097046;28;19928;-68
2021/01/25 09:49:36;;;;;;;;;;;;;;;0.71;100.00;99507.25;5094140;28;20018;-68
2021/01/25 09:52:03;;;;;;;;;;;;;;;0.67;100.00;99506.59;5094185;28;19973;-68
2021/01/25 09:54:29;;;;;;;;;;;;;;;0.77;100.00;99501.53;5094082;28;19924;-67
2021/01/25 09:56:54;;;;;;;;;;;;;;;0.97;100.00;99497.66;5093755;28;19993;-69
2021/01/25 09:59:20;;;;;;;;;;;;;;;0.88;100.00;99507.06;5112691;28;19938;-69
2021/01/25 10:01:46;;;;;;;;;;;;;;;0.89;100.00;99500.78;5114378;28;20307;-68
2021/01/25 10:04:12;;;;;;;;;;;;;;;0.85;100.00;99511.78;5096323;28;19924;-68
2021/01/25 10:06:38;;;;;;;;;;;;;;;0.75;100.00;99512.31;5093293;28;19924;-67
2021/01/25 10:09:05;;;;;;;;;;;;;;;0.76;100.00;99514.03;5093998;28;19990;-66
2021/01/25 10:11:31;;;;;;;;;;;;;;;0.66;100.00;99516.38;5093592;28;19928;-67
2021/01/25 10:13:57;;;;;;;;;;;;;;;0.57;100.00;99516.94;5093998;28;20023;-67
2021/01/25 10:16:23;;;;;;;;;;;;;;;0.66;100.00;99526.22;5093280;28;19924;-68
2021/01/25 10:18:49;;;;;;;;;;;;;;;0.67;100.00;99530.63;5112147;28;19942;-68
2021/01/25 10:21:16;;;;;;;;;;;;;;;0.68;100.00;99524.31;5114020;28;19931;-68
2021/01/25 10:23:42;;;;;;;;;;;;;;;0.64;100.00;99522.78;5098121;28;19927;-67
2021/01/25 10:26:09;;;;;;;;;;;;;;;0.72;100.00;99541.03;5108775;28;20393;-68
2021/01/25 10:28:35;;;;;;;;;;;;;;;0.70;100.00;99535.78;5104048;28;20505;-68
2021/01/25 10:31:00;;;;;;;;;;;;;;;0.62;100.00;99546.91;5106039;28;19928;-68
2021/01/25 10:33:26;;;;;;;;;;;;;;;0.57;100.00;99540.97;5111956;28;19935;-67
2021/01/25 10:35:52;;;;;;;;;;;;;;;0.56;100.00;99541.06;5093097;28;19924;-68
2021/01/25 10:38:18;;;;;;;;;;;;;;;0.53;100.00;99543.94;5100830;28;19923;-68
2021/01/25 10:40:43;;;;;;;;;;;;;;;0.51;100.00;99546.69;5113605;28;19931;-68
2021/01/25 10:43:10;;;;;;;;;;;;;;;0.57;100.00;99540.13;5107174;28;19928;-68
2021/01/25 10:45:36;;;;;;;;;;;;;;;0.48;100.00;99544.19;5092817;28;20084;-67
2021/01/25 10:48:02;;;;;;;;;;;;;;;0.52;100.00;99544.88;5093083;28;20374;-68
2021/01/25 10:50:28;;;;;;;;;;;;;;;0.55;100.00;99552.69;5092983;28;19970;-67
2021/01/25 10:52:53;;;;;;;;;;;;;;;0.45;100.00;99555.03;5103756;28;19932;-67
2021/01/25 10:55:19;;;;;;;;;;;;;;;0.37;100.00;99554.63;5113143;28;19924;-67
2021/01/25 10:57:45;;;;;;;;;;;;;;;0.39;100.00;99558.06;5111184;28;19925;-67
2021/01/25 11:00:13;;;;;;;;;;;;;;;0.47;100.00;99556.69;5112987;28;19923;-67
2021/01/25 11:02:39;;;;;;;;;;;;;;;0.53;100.00;99560.78;5102618;28;20007;-67
2021/01/25 11:05:06;;;;;;;;;;;;;;;0.47;100.00;99567.34;5092750;28;19947;-67
2021/01/25 11:07:32;;;;;;;;;;;;;;;0.45;100.00;99563.91;5109260;28;20027;-67
2021/01/25 11:09:58;;;;;;;;;;;;;;;0.45;100.00;99558.56;5111377;28;19928;-67
2021/01/25 11:12:24;;;;;;;;;;;;;;;0.45;100.00;99571.91;5101008;28;19928;-70
2021/01/25 11:14:50;;;;;;;;;;;;;;;0.40;100.00;99567.78;5112194;28;20270;-69
2021/01/25 11:17:17;;;;;;;;;;;;;;;0.40;100.00;99567.78;5112795;28;19924;-69
2021/01/25 11:19:42;;;;;;;;;;;;;;;0.51;100.00;99573.41;5110380;28;20356;-68
2021/01/25 11:22:08;;;;;;;;;;;;;;;0.50;100.00;99571.66;5092408;28;19927;-68
2021/01/25 11:24:34;;;;;;;;;;;;;;;0.56;100.00;99582.00;5093479;28;19924;-69
2021/01/25 11:27:03;;;;;;;;;;;;;;;0.56;100.00;99571.31;5106876;28;19934;-70
2021/01/25 11:29:30;;;;;;;;;;;;;;;0.61;100.00;99579.91;5112268;28;20332;-69
2021/01/25 11:31:57;;;;;;;;;;;;;;;0.64;100.00;99585.09;5093987;28;19970;-69
2021/01/25 11:34:24;;;;;;;;;;;;;;;0.70;100.00;99586.53;5095867;28;20028;-68
2021/01/25 11:36:51;;;;;;;;;;;;;;;0.71;100.00;99587.38;5091527;28;19974;-69
2021/01/25 11:39:16;;;;;;;;;;;;;;;0.74;100.00;99580.06;5106022;28;20450;-69
2021/01/25 11:41:42;;;;;;;;;;;;;;;0.81;100.00;99586.75;5100542;28;19928;-69
2021/01/25 11:44:08;;;;;;;;;;;;;;;0.88;100.00;99575.72;5112329;28;19947;-68
2021/01/25 11:46:34;;;;;;;;;;;;;;;0.91;100.00;99575.50;5111546;28;20155;-68
2021/01/25 11:49:00;;;;;;;;;;;;;;;0.98;100.00;99579.56;5112078;28;19931;-68
2021/01/25 11:51:26;;;;;;;;;;;;;;;0.95;100.00;99579.72;5097300;28;20386;-69
2021/01/25 11:53:52;;;;;;;;;;;;;;;0.93;100.00;99578.97;5091957;28;20453;-69
2021/01/25 11:56:18;;;;;;;;;;;;;;;0.95;100.00;99585.94;5104120;28;19924;-69
2021/01/25 11:58:44;;;;;;;;;;;;;;;0.88;100.00;99581.06;5094045;28;19928;-69
2021/01/25 12:01:09;;;;;;;;;;;;;;;0.86;100.00;99585.66;5105147;28;20060;-69
2021/01/25 12:03:35;;;;;;;;;;;;;;;0.89;100.00;99580.09;5107494;28;19928;-69
2021/01/25 12:06:01;;;;;;;;;;;;;;;0.88;100.00;99581.91;5092206;28;20330;-69
2021/01/25 12:08:28;;;;;;;;;;;;;;;0.92;100.00;99575.44;5111318;28;19927;-69
2021/01/25 12:10:53;;;;;;;;;;;;;;;0.94;100.00;99580.69;5111305;28;19923;-69
2021/01/25 12:13:19;;;;;;;;;;;;;;;1.00;100.00;99583.88;5091411;28;19924;-69
2021/01/25 12:15:45;;;;;;;;;;;;;;;1.02;100.00;99582.88;5091359;28;19924;-69
2021/01/25 12:18:11;;;;;;;;;;;;;;;1.09;100.00;99595.81;5110272;28;20503;-69
2021/01/25 12:20:37;;;;;;;;;;;;;;;1.09;100.00;99593.13;5106434;28;20304;-67
2021/01/25 12:23:03;;;;;;;;;;;;;;;1.17;100.00;99592.66;5098807;28;20032;-68
2021/01/25 12:25:29;;;;;;;;;;;;;;;1.07;100.00;99587.03;5103912;28;20388;-69
2021/01/25 12:27:55;;;;;;;;;;;;;;;1.01;100.00;99592.72;5111475;28;20431;-69
2021/01/25 12:30:21;;;;;;;;;;;;;;;1.08;100.00;99594.09;5110928;28;19927;-68
2021/01/25 12:32:47;;;;;;;;;;;;;;;1.11;100.00;99596.59;5108087;28;19971;-68
2021/01/25 12:35:14;;;;;;;;;;;;;;;1.07;100.00;99594.16;5100108;28;20033;-69
2021/01/25 12:37:39;;;;;;;;;;;;;;;0.97;100.00;99583.19;5110617;28;20022;-68